Time;durP1;ratioP1;P1;durP2;ratioP2;P2;SDS_P1;SDS_P2;PMS_P1;PMS_P2;Temp;Humidity;BMP_temperature;BMP_pressure;BME280_temperature;BME280_humidity;BME280_pressure;Samples;Min_cycle;Max_cycle;Signal;HPM_P1;HPM_P2
2021/07/12 00:00:12;;;;;;;13.97;12.50;;;;;;;22.30;70.10;100523.19;1744197;80;21046;-75
2021/07/12 00:02:39;;;;;;;13.00;11.53;;;;;;;22.30;69.98;100523.77;1736846;80;22211;-76
2021/07/12 00:05:07;;;;;;;12.37;11.10;;;;;;;22.29;69.81;100527.05;1746373;80;21019;-76
2021/07/12 00:07:35;;;;;;;13.00;11.27;;;;;;;22.28;69.74;100520.03;1736211;80;21166;-76
2021/07/12 00:10:08;;;;;;;12.77;11.57;;;;;;;22.28;69.76;100526.02;1740024;82;21635;-75
2021/07/12 00:12:35;;;;;;;13.80;12.23;;;;;;;22.29;70.15;100527.63;1748907;82;21671;-76
2021/07/12 00:15:05;;;;;;;12.80;11.50;;;;;;;22.28;70.24;100528.73;1762423;80;20967;-76
2021/07/12 00:17:32;;;;;;;12.13;10.93;;;;;;;22.26;70.25;100531.02;1758080;80;21003;-77
2021/07/12 00:20:00;;;;;;;13.20;11.80;;;;;;;22.22;70.02;100527.61;1749320;80;21082;-77
2021/07/12 00:22:27;;;;;;;13.93;11.47;;;;;;;22.21;69.78;100524.66;1751817;80;20980;-77
2021/07/12 00:24:55;;;;;;;13.50;12.10;;;;;;;22.18;69.96;100519.89;1742682;80;21541;-78
2021/07/12 00:27:23;;;;;;;12.70;11.23;;;;;;;22.19;70.20;100527.48;1744166;80;21233;-77
2021/07/12 00:29:51;;;;;;;12.37;11.07;;;;;;;22.18;70.24;100530.78;1741429;80;21061;-77
2021/07/12 00:32:20;;;;;;;13.60;12.20;;;;;;;22.19;70.28;100531.00;1748377;80;20970;-76
2021/07/12 00:34:47;;;;;;;15.53;12.07;;;;;;;22.16;70.44;100526.22;1743805;80;21023;-76
2021/07/12 00:37:16;;;;;;;12.90;11.60;;;;;;;22.14;70.61;100526.30;1746870;81;21037;-76
2021/07/12 00:39:43;;;;;;;12.30;11.03;;;;;;;22.12;70.95;100523.92;1740241;80;21074;-77
2021/07/12 00:42:11;;;;;;;12.73;11.17;;;;;;;22.10;71.14;100523.45;1744404;81;21070;-76
2021/07/12 00:44:42;;;;;;;12.23;11.17;;;;;;;22.08;71.07;100518.93;1745277;80;21145;-77
2021/07/12 00:47:09;;;;;;;14.00;11.97;;;;;;;22.06;71.13;100514.38;1738609;80;21630;-78
2021/07/12 00:49:36;;;;;;;12.90;11.70;;;;;;;22.05;71.25;100509.29;1742326;80;21550;-78
2021/07/12 00:52:05;;;;;;;12.33;11.13;;;;;;;22.02;71.39;100503.95;1741616;80;21474;-79
2021/07/12 00:54:32;;;;;;;12.37;11.17;;;;;;;21.98;72.17;100502.47;1745708;81;21000;-77
2021/07/12 00:57:01;;;;;;;12.13;11.03;;;;;;;21.94;72.13;100502.88;1747694;80;21115;-78
2021/07/12 00:59:29;;;;;;;13.23;11.03;;;;;;;21.91;71.34;100503.55;1743230;80;21239;-77
2021/07/12 01:01:57;;;;;;;11.20;10.20;;;;;;;21.90;70.75;100501.17;1744579;80;21054;-77
2021/07/12 01:04:25;;;;;;;12.27;10.63;;;;;;;21.91;70.33;100495.96;1746906;80;21322;-78
2021/07/12 01:06:54;;;;;;;12.30;11.20;;;;;;;21.92;70.16;100501.65;1747899;80;21030;-76
2021/07/12 01:09:22;;;;;;;11.93;10.67;;;;;;;21.92;70.08;100496.21;1738536;80;21143;-77
2021/07/12 01:12:12;;;;;;;11.60;10.43;;;;;;;21.91;69.97;100498.11;1744384;80;21569;-77
2021/07/12 01:14:50;;;;;;;11.60;10.50;;;;;;;21.91;69.52;100495.39;1746788;80;21615;-76
2021/07/12 01:18:07;;;;;;;12.27;11.07;;;;;;;21.90;69.39;100497.09;1733328;80;21038;-77
2021/07/12 01:21:02;;;;;;;11.57;10.33;;;;;;;21.90;69.23;100499.81;1740680;80;21521;-77
2021/07/12 01:24:22;;;;;;;12.20;10.90;;;;;;;21.89;68.75;100496.88;1747765;80;21064;-77
2021/07/12 01:27:42;;;;;;;12.40;11.23;;;;;;;21.87;68.63;100495.84;1738014;80;21055;-77
2021/07/12 01:30:37;;;;;;;11.70;10.60;;;;;;;21.88;69.12;100495.27;1744502;80;21086;-76
2021/07/12 01:33:17;;;;;;;12.70;11.40;;;;;;;21.88;69.33;100500.70;1734335;80;21442;-76
2021/07/12 01:36:02;;;;;;;11.03;9.97;;;;;;;21.88;69.24;100506.14;1732392;81;21590;-76
2021/07/12 01:38:45;;;;;;;11.73;10.53;;;;;;;21.89;69.20;100509.11;1731756;81;21109;-78
2021/07/12 01:41:35;;;;;;;11.87;10.60;;;;;;;21.89;69.44;100511.83;1744045;80;20935;-78
2021/07/12 01:44:13;;;;;;;12.30;11.20;;;;;;;21.88;69.62;100511.05;1742090;80;21014;-76
2021/07/12 01:46:51;;;;;;;12.57;11.10;;;;;;;21.86;69.46;100513.86;1747780;80;21019;-76
2021/07/12 01:49:32;;;;;;;12.60;11.37;;;;;;;21.86;69.27;100520.09;1741548;80;21022;-77
2021/07/12 01:52:21;;;;;;;11.33;10.28;;;;;;;21.85;68.61;100512.25;1740749;82;21127;-76
2021/07/12 01:55:06;;;;;;;12.57;11.30;;;;;;;21.82;67.65;100508.30;1741404;80;21019;-76
2021/07/12 01:57:42;;;;;;;12.73;11.43;;;;;;;21.82;67.26;100503.42;1738238;80;21086;-78
2021/07/12 02:00:11;;;;;;;12.23;11.03;;;;;;;21.81;67.60;100505.33;1729147;80;21069;-77
2021/07/12 02:02:52;;;;;;;11.57;10.47;;;;;;;21.83;67.86;100513.95;1733624;80;21089;-77
2021/07/12 02:05:22;;;;;;;13.57;10.97;;;;;;;21.85;67.82;100512.25;1701443;82;21916;-77
2021/07/12 02:07:50;;;;;;;12.30;11.10;;;;;;;21.87;67.49;100505.92;1748469;80;21136;-77
2021/07/12 02:10:20;;;;;;;13.83;11.30;;;;;;;21.87;67.11;100505.92;1745244;80;21027;-77
2021/07/12 02:12:51;;;;;;;11.87;10.27;;;;;;;21.90;67.24;100511.48;1740873;80;21034;-76
2021/07/12 02:15:17;;;;;;;11.90;10.77;;;;;;;21.93;67.67;100507.31;1722351;82;21140;-76
2021/07/12 02:17:47;;;;;;;11.73;10.53;;;;;;;21.94;67.74;100506.17;1741800;80;21026;-76
2021/07/12 02:20:16;;;;;;;12.07;10.67;;;;;;;21.97;67.72;100506.30;1741823;80;21069;-77
2021/07/12 02:22:43;;;;;;;12.43;10.77;;;;;;;21.99;67.43;100500.53;1719683;81;21012;-76
2021/07/12 02:25:15;;;;;;;11.88;10.78;;;;;;;22.01;66.95;100507.23;1746474;80;25179;-77
2021/07/12 02:27:43;;;;;;;11.03;9.93;;;;;;;22.03;66.24;100506.89;1725755;81;21574;-78
2021/07/12 02:30:11;;;;;;;11.93;10.80;;;;;;;22.04;65.97;100526.15;1745155;80;21787;-77
2021/07/12 02:32:38;;;;;;;12.03;10.53;;;;;;;22.03;66.96;100525.14;1745939;80;21147;-77
2021/07/12 02:35:07;;;;;;;12.20;10.97;;;;;;;21.99;66.86;100525.02;1748645;80;20987;-78
2021/07/12 02:37:37;;;;;;;12.20;11.00;;;;;;;21.99;66.73;100511.41;1721779;81;21062;-77
2021/07/12 02:40:08;;;;;;;11.40;10.38;;;;;;;22.00;66.42;100507.55;1748244;80;21031;-77
2021/07/12 02:42:38;;;;;;;12.30;10.47;;;;;;;22.04;66.31;100513.12;1739425;80;22440;-77
2021/07/12 02:45:08;;;;;;;12.20;11.10;;;;;;;22.08;66.71;100505.33;1749257;80;21122;-76
2021/07/12 02:47:37;;;;;;;12.03;10.93;;;;;;;22.12;66.60;100495.36;1743061;80;21580;-77
2021/07/12 02:50:07;;;;;;;11.90;10.87;;;;;;;22.17;66.36;100492.44;1745131;80;21086;-78
2021/07/12 02:52:49;;;;;;;12.30;11.20;;;;;;;22.24;66.36;100498.69;1715414;82;21108;-77
2021/07/12 02:55:15;;;;;;;12.50;11.40;;;;;;;22.31;66.35;100492.15;1729511;81;21798;-77
2021/07/12 02:57:43;;;;;;;11.47;10.47;;;;;;;22.39;66.73;100483.66;1739729;80;21043;-77
2021/07/12 03:00:12;;;;;;;11.70;10.60;;;;;;;22.48;67.08;100493.30;1732639;81;20999;-78
2021/07/12 03:02:40;;;;;;;11.50;10.27;;;;;;;22.57;67.36;100499.98;1742080;80;20999;-77
2021/07/12 03:05:10;;;;;;;11.23;10.13;;;;;;;22.65;67.35;100495.59;1732460;81;21487;-77
2021/07/12 03:07:48;;;;;;;10.73;9.73;;;;;;;22.72;67.05;100499.89;1742304;80;21315;-77
2021/07/12 03:10:20;;;;;;;11.63;10.43;;;;;;;22.82;66.86;100502.16;1738173;80;21054;-77
2021/07/12 03:12:50;;;;;;;11.77;10.63;;;;;;;22.96;66.62;100497.75;1742337;80;21058;-77
2021/07/12 03:15:21;;;;;;;10.90;9.90;;;;;;;23.08;66.43;100497.74;1724898;82;20963;-77
2021/07/12 03:17:54;;;;;;;11.67;10.60;;;;;;;23.17;66.00;100494.33;1748347;80;21011;-78
2021/07/12 03:20:21;;;;;;;10.70;9.78;;;;;;;23.25;65.30;100491.81;1715450;83;21819;-78
2021/07/12 03:22:53;;;;;;;12.97;10.50;;;;;;;23.30;64.80;100484.78;1743958;80;21030;-78
2021/07/12 03:25:35;;;;;;;11.00;9.93;;;;;;;23.33;64.61;100486.23;1743680;81;21010;-78
2021/07/12 03:28:03;;;;;;;11.03;9.98;;;;;;;23.38;64.60;100487.92;1746784;80;21152;-78
2021/07/12 03:30:33;;;;;;;11.43;9.73;;;;;;;23.44;64.01;100494.72;1745035;82;21003;-75
2021/07/12 03:33:00;;;;;;;10.70;9.70;;;;;;;23.48;63.53;100492.09;1746203;80;21117;-77
2021/07/12 03:35:44;;;;;;;10.20;9.30;;;;;;;23.54;63.04;100491.50;1744920;80;20995;-77
2021/07/12 03:38:17;;;;;;;10.30;9.30;;;;;;;23.59;63.13;100481.73;1737761;82;21090;-77
2021/07/12 03:40:44;;;;;;;11.20;10.10;;;;;;;23.65;62.69;100481.68;1748380;82;21137;-77
2021/07/12 03:43:14;;;;;;;10.70;9.80;;;;;;;23.68;62.57;100484.32;1742653;80;21000;-77
2021/07/12 03:45:43;;;;;;;11.03;10.03;;;;;;;23.70;62.61;100480.69;1741917;80;21103;-77
2021/07/12 03:48:10;;;;;;;10.87;9.87;;;;;;;23.74;62.67;100487.03;1739000;80;21031;-77
2021/07/12 03:50:39;;;;;;;10.87;9.83;;;;;;;23.77;62.72;100489.06;1753639;80;21513;-77
2021/07/12 03:53:05;;;;;;;12.00;10.30;;;;;;;23.80;62.40;100484.85;1755534;80;21010;-78
2021/07/12 03:55:32;;;;;;;11.00;9.97;;;;;;;23.84;62.50;100484.37;1756997;80;20959;-73
2021/07/12 03:58:00;;;;;;;11.40;9.37;;;;;;;23.89;62.40;100482.77;1755958;80;21121;-78
2021/07/12 04:00:29;;;;;;;10.83;9.83;;;;;;;23.93;62.13;100486.95;1747132;80;20960;-78
2021/07/12 04:02:56;;;;;;;11.50;10.30;;;;;;;23.96;62.08;100482.95;1733558;81;20992;-78
2021/07/12 04:05:28;;;;;;;11.30;10.20;;;;;;;24.00;62.05;100482.47;1747484;80;21026;-78
2021/07/12 04:07:57;;;;;;;10.72;9.68;;;;;;;24.05;61.93;100490.41;1745568;80;20952;-78
2021/07/12 04:10:24;;;;;;;10.23;9.27;;;;;;;24.10;61.93;100494.23;1744904;80;21142;-77
2021/07/12 04:12:51;;;;;;;10.43;9.43;;;;;;;24.13;61.47;100498.20;1746405;80;21135;-77
2021/07/12 04:15:17;;;;;;;11.37;10.20;;;;;;;24.19;60.95;100496.02;1744757;80;21002;-76
2021/07/12 04:17:45;;;;;;;11.00;9.97;;;;;;;24.23;60.83;100495.53;1747410;80;21106;-76
2021/07/12 04:20:13;;;;;;;11.50;9.53;;;;;;;24.26;60.62;100489.38;1739460;80;21608;-79
2021/07/12 04:22:40;;;;;;;11.27;10.10;;;;;;;24.30;60.56;100488.89;1747588;80;21153;-77
2021/07/12 04:25:08;;;;;;;11.23;10.23;;;;;;;24.33;60.56;100486.83;1742139;80;20974;-77
2021/07/12 04:27:36;;;;;;;10.97;9.90;;;;;;;24.34;60.61;100483.73;1750535;80;21038;-78
2021/07/12 04:30:06;;;;;;;10.20;9.30;;;;;;;24.34;60.50;100485.67;1744012;80;21081;-78
2021/07/12 04:32:32;;;;;;;11.37;10.17;;;;;;;24.32;60.71;100485.25;1738256;80;21733;-76
2021/07/12 04:34:59;;;;;;;11.53;10.43;;;;;;;24.31;60.83;100489.89;1741334;80;21880;-77
2021/07/12 04:37:29;;;;;;;12.50;11.23;;;;;;;24.31;60.97;100486.38;1747877;80;21003;-78
2021/07/12 04:40:03;;;;;;;11.23;10.23;;;;;;;24.34;61.11;100484.30;1745834;80;21027;-77
2021/07/12 04:42:29;;;;;;;12.13;11.03;;;;;;;24.38;61.30;100487.91;1749219;80;21078;-78
2021/07/12 04:44:56;;;;;;;11.57;10.43;;;;;;;24.47;61.34;100480.38;1743612;80;21007;-78
2021/07/12 04:47:24;;;;;;;12.43;10.60;;;;;;;24.55;61.33;100480.78;1753150;80;21228;-77
2021/07/12 04:49:50;;;;;;;13.33;10.60;;;;;;;24.62;61.25;100478.01;1747224;80;21477;-79
2021/07/12 04:52:17;;;;;;;12.07;9.60;;;;;;;24.70;61.10;100478.38;1747026;80;20999;-77
2021/07/12 04:54:44;;;;;;;10.70;9.73;;;;;;;24.83;60.90;100484.53;1744552;80;21093;-77
2021/07/12 04:57:10;;;;;;;10.97;9.77;;;;;;;24.94;60.63;100484.19;1732874;81;21505;-78
2021/07/12 04:59:39;;;;;;;10.10;9.10;;;;;;;25.03;60.12;100479.33;1739806;81;21155;-78
2021/07/12 05:02:08;;;;;;;9.30;7.93;;;;;;;25.09;60.06;100476.54;1749777;82;21175;-78
2021/07/12 05:04:41;;;;;;;8.73;7.90;;;;;;;25.13;59.36;100471.18;1746018;80;21049;-77
2021/07/12 05:07:05;;;;;;;10.50;8.40;;;;;;;25.17;58.67;100475.59;1743451;80;21097;-79
2021/07/12 05:09:32;;;;;;;8.70;7.87;;;;;;;25.23;58.62;100461.83;1749435;80;21129;-79
2021/07/12 05:11:59;;;;;;;10.93;8.60;;;;;;;25.33;58.27;100470.63;1744292;80;21103;-78
2021/07/12 05:14:26;;;;;;;8.97;8.07;;;;;;;25.42;58.33;100465.16;1739599;80;21050;-78
2021/07/12 05:16:54;;;;;;;8.50;7.77;;;;;;;25.57;58.50;100469.54;1723826;82;21046;-78
2021/07/12 05:19:23;;;;;;;9.70;7.60;;;;;;;25.73;58.52;100474.35;1721639;81;21053;-77
2021/07/12 05:21:50;;;;;;;8.83;7.90;;;;;;;25.92;58.25;100474.36;1750167;80;21042;-78
2021/07/12 05:24:17;;;;;;;8.30;7.47;;;;;;;26.14;58.01;100468.70;1749094;80;21945;-78
2021/07/12 05:26:44;;;;;;;9.03;7.37;;;;;;;26.34;55.90;100474.91;1738339;82;21664;-78
2021/07/12 05:29:10;;;;;;;7.53;6.80;;;;;;;26.50;54.40;100479.50;1748214;82;21066;-76
2021/07/12 05:31:37;;;;;;;8.77;7.33;;;;;;;26.58;54.28;100476.48;1751878;80;20988;-77
2021/07/12 05:34:03;;;;;;;7.20;6.50;;;;;;;26.71;54.21;100479.03;1748954;80;21395;-77
2021/07/12 05:36:31;;;;;;;8.13;7.13;;;;;;;26.86;52.98;100489.05;1740184;80;21573;-77
2021/07/12 05:38:57;;;;;;;7.83;7.03;;;;;;;26.96;52.54;100489.79;1747488;80;21659;-76
2021/07/12 05:41:25;;;;;;;9.03;6.97;;;;;;;27.08;51.89;100499.73;1748294;82;20975;-76
2021/07/12 05:43:51;;;;;;;7.67;6.77;;;;;;;27.13;51.97;100496.70;1748432;80;21046;-78
2021/07/12 05:46:18;;;;;;;7.87;7.13;;;;;;;27.17;52.05;100496.17;1739901;80;21054;-77
2021/07/12 05:48:44;;;;;;;8.43;7.57;;;;;;;27.23;52.34;100498.80;1748780;80;21917;-76
2021/07/12 05:51:11;;;;;;;10.53;8.83;;;;;;;27.24;52.28;100500.38;1745146;82;21181;-78
2021/07/12 05:53:38;;;;;;;9.53;7.93;;;;;;;27.18;52.55;100507.36;1748818;80;21084;-78
2021/07/12 05:56:05;;;;;;;12.37;9.40;;;;;;;27.13;53.56;100513.94;1740768;80;21520;-78
2021/07/12 05:58:31;;;;;;;9.73;8.83;;;;;;;27.12;53.15;100525.27;1741776;80;21121;-77
2021/07/12 06:00:58;;;;;;;9.90;8.97;;;;;;;27.13;53.27;100520.80;1733511;80;21128;-78
2021/07/12 06:03:25;;;;;;;12.53;8.87;;;;;;;27.13;52.92;100522.17;1741608;80;21156;-77
2021/07/12 06:05:52;;;;;;;10.83;9.03;;;;;;;27.12;53.47;100526.64;1743891;80;21737;-77
2021/07/12 06:08:19;;;;;;;15.43;9.17;;;;;;;27.09;53.34;100528.16;1742676;80;21046;-79
2021/07/12 06:10:46;;;;;;;12.97;9.60;;;;;;;27.01;54.04;100531.16;1745520;80;21045;-81
2021/07/12 06:13:13;;;;;;;10.50;8.30;;;;;;;26.97;54.30;100535.80;1739014;80;21102;-79
2021/07/12 06:15:40;;;;;;;9.30;8.40;;;;;;;26.89;54.15;100525.31;1745169;80;21644;-79
2021/07/12 06:18:14;;;;;;;9.27;8.17;;;;;;;26.82;54.97;100532.06;1741927;80;21070;-80
2021/07/12 06:20:41;;;;;;;19.47;10.57;;;;;;;26.77;55.14;100538.63;1748746;80;22267;-78
2021/07/12 06:23:08;;;;;;;19.97;10.80;;;;;;;26.75;55.20;100538.78;1742659;80;21394;-77
2021/07/12 06:25:36;;;;;;;15.13;10.50;;;;;;;26.72;55.30;100547.73;1739750;80;21146;-81
2021/07/12 06:28:04;;;;;;;10.03;9.03;;;;;;;26.69;55.65;100548.45;1746508;80;20973;-83
2021/07/12 06:30:32;;;;;;;13.63;9.20;;;;;;;26.61;55.79;100562.63;1734672;80;21058;-80
2021/07/12 06:33:00;;;;;;;18.13;10.03;;;;;;;26.50;56.21;100554.81;1746398;80;37755;-80
2021/07/12 06:35:26;;;;;;;12.40;9.70;;;;;;;26.35;56.65;100555.88;1749631;80;21049;-80
2021/07/12 06:37:53;;;;;;;18.77;10.40;;;;;;;26.24;57.49;100559.60;1738947;80;21814;-79
2021/07/12 06:40:20;;;;;;;20.47;10.77;;;;;;;26.15;57.97;100561.19;1746473;80;21018;-79
2021/07/12 06:42:46;;;;;;;16.50;10.33;;;;;;;26.08;58.40;100563.80;1749784;79;21057;-79
2021/07/12 06:45:15;;;;;;;34.27;13.23;;;;;;;26.03;58.79;100564.08;1746927;80;21003;-77
2021/07/12 06:47:42;;;;;;;16.60;11.33;;;;;;;25.95;61.65;100562.58;1719644;80;21529;-79
2021/07/12 06:50:09;;;;;;;21.40;11.27;;;;;;;25.73;62.11;100562.71;1747616;80;21064;-76
2021/07/12 06:52:36;;;;;;;12.33;10.27;;;;;;;25.50;63.57;100570.82;1722766;80;21169;-77
2021/07/12 06:55:05;;;;;;;11.27;9.80;;;;;;;25.28;64.78;100566.61;1744710;80;21118;-74
2021/07/12 06:57:31;;;;;;;12.87;10.60;;;;;;;25.06;65.17;100552.98;1740301;80;21548;-75
2021/07/12 06:59:58;;;;;;;15.37;11.27;;;;;;;24.94;66.30;100547.86;1741447;80;20998;-77
2021/07/12 07:02:25;;;;;;;17.77;11.57;;;;;;;24.91;67.00;100553.20;1739382;80;21913;-77
2021/07/12 07:04:53;;;;;;;18.00;12.10;;;;;;;24.93;68.54;100546.25;1740664;80;20918;-76
2021/07/12 07:07:20;;;;;;;15.67;11.30;;;;;;;24.97;70.11;100548.48;1738542;80;21075;-76
2021/07/12 07:09:46;;;;;;;10.23;9.23;;;;;;;24.93;70.10;100539.41;1743871;80;20987;-78
2021/07/12 07:12:13;;;;;;;12.90;11.60;;;;;;;24.95;70.75;100532.25;1748143;80;21601;-75
2021/07/12 07:14:45;;;;;;;12.00;10.73;;;;;;;24.93;70.54;100529.85;1746146;82;21192;-76
2021/07/12 07:17:12;;;;;;;14.33;11.17;;;;;;;24.96;70.85;100529.15;1746860;80;21203;-75
2021/07/12 07:19:39;;;;;;;16.13;11.17;;;;;;;24.98;71.14;100526.86;1735324;81;21047;-74
2021/07/12 07:22:06;;;;;;;12.43;11.07;;;;;;;24.96;71.79;100529.72;1754161;80;21664;-74
2021/07/12 07:24:43;;;;;;;14.30;10.97;;;;;;;25.02;71.71;100526.94;1738722;81;21188;-73
2021/07/12 07:27:11;;;;;;;20.40;11.77;;;;;;;25.10;71.19;100520.48;1748160;80;22314;-72
2021/07/12 07:29:38;;;;;;;19.80;11.23;;;;;;;25.21;71.51;100522.13;1749922;82;21018;-72
2021/07/12 07:32:07;;;;;;;18.53;11.47;;;;;;;25.26;70.05;100521.84;1752826;80;20999;-72
2021/07/12 07:34:34;;;;;;;23.77;12.70;;;;;;;25.32;69.29;100523.15;1734088;80;21026;-73
2021/07/12 07:37:01;;;;;;;15.50;11.43;;;;;;;25.41;68.54;100522.38;1743169;80;21034;-73
2021/07/12 07:39:27;;;;;;;14.47;11.10;;;;;;;25.54;67.27;100519.52;1743742;80;21614;-72
2021/07/12 07:41:55;;;;;;;11.90;10.70;;;;;;;25.75;67.12;100522.67;1746143;80;21030;-74
2021/07/12 07:44:22;;;;;;;11.43;10.33;;;;;;;26.00;66.58;100525.14;1747608;80;21041;-74
2021/07/12 07:46:49;;;;;;;11.53;10.23;;;;;;;26.24;65.97;100530.85;1746670;80;21059;-73
2021/07/12 07:49:16;;;;;;;11.63;10.37;;;;;;;26.49;65.00;100536.78;1741705;80;21565;-73
2021/07/12 07:51:44;;;;;;;11.13;9.97;;;;;;;26.74;64.79;100541.31;1742867;80;21931;-72
2021/07/12 07:54:12;;;;;;;11.13;9.73;;;;;;;26.99;64.37;100547.98;1739645;80;21166;-74
2021/07/12 07:56:40;;;;;;;10.93;9.93;;;;;;;27.20;63.21;100547.53;1743630;80;21183;-74
2021/07/12 07:59:07;;;;;;;11.63;10.50;;;;;;;27.34;63.04;100542.26;1742597;80;20990;-73
2021/07/12 08:01:35;;;;;;;10.20;9.30;;;;;;;27.52;62.39;100545.81;1739333;80;21582;-73
2021/07/12 08:04:02;;;;;;;11.17;10.07;;;;;;;27.73;60.99;100541.16;1733084;81;21544;-73
2021/07/12 08:06:29;;;;;;;9.83;8.80;;;;;;;27.83;60.20;100542.67;1731425;82;21035;-74
2021/07/12 08:08:57;;;;;;;8.70;7.90;;;;;;;27.92;57.93;100536.91;1741017;80;21058;-73
2021/07/12 08:11:25;;;;;;;9.63;8.70;;;;;;;27.97;56.69;100542.08;1745130;80;21027;-74
2021/07/12 08:13:53;;;;;;;10.17;9.00;;;;;;;27.93;56.84;100539.84;1738029;80;21200;-74
2021/07/12 08:16:20;;;;;;;9.80;8.90;;;;;;;27.85;56.19;100544.28;1737975;80;21060;-74
2021/07/12 08:18:48;;;;;;;10.13;9.23;;;;;;;27.85;57.33;100538.79;1741162;80;21082;-72
2021/07/12 08:21:14;;;;;;;9.97;9.03;;;;;;;27.86;57.00;100540.36;1741276;80;21034;-74
2021/07/12 08:23:43;;;;;;;9.40;8.50;;;;;;;27.96;56.98;100545.97;1732799;81;21580;-74
2021/07/12 08:26:10;;;;;;;9.53;8.73;;;;;;;28.10;57.33;100546.73;1739547;80;21043;-74
2021/07/12 08:28:38;;;;;;;9.87;8.97;;;;;;;28.24;57.16;100541.36;1744305;80;21356;-73
2021/07/12 08:31:11;;;;;;;9.37;8.47;;;;;;;28.40;56.87;100534.88;1741631;80;21077;-75
2021/07/12 08:33:39;;;;;;;8.77;7.97;;;;;;;28.52;55.82;100533.20;1749308;80;21055;-74
2021/07/12 08:36:06;;;;;;;9.03;8.23;;;;;;;28.63;56.45;100531.91;1745624;80;21621;-73
2021/07/12 08:38:33;;;;;;;9.07;8.17;;;;;;;28.63;56.28;100528.59;1727896;81;21070;-74
2021/07/12 08:41:00;;;;;;;8.83;7.90;;;;;;;28.64;55.74;100512.89;1742868;80;21086;-74
2021/07/12 08:43:26;;;;;;;8.83;7.93;;;;;;;28.70;54.83;100511.37;1737502;80;21537;-74
2021/07/12 08:45:54;;;;;;;8.43;7.62;;;;;;;28.81;53.47;100511.44;1747998;80;21498;-73
2021/07/12 08:48:20;;;;;;;8.13;7.33;;;;;;;28.97;54.20;100510.57;1749010;82;21063;-74
2021/07/12 08:50:48;;;;;;;9.50;7.12;;;;;;;29.12;54.30;100504.58;1741334;80;21031;-75
2021/07/12 08:53:15;;;;;;;8.45;7.65;;;;;;;29.36;52.75;100502.56;1739565;82;21154;-73
2021/07/12 08:55:44;;;;;;;9.00;8.20;;;;;;;29.59;52.71;100502.85;1747779;80;21411;-74
2021/07/12 08:58:23;;;;;;;8.93;8.05;;;;;;;29.80;51.24;100503.53;1752033;80;20999;-74
2021/07/12 09:01:08;;;;;;;9.45;7.60;;;;;;;29.93;50.90;100505.33;1747306;80;21592;-73
2021/07/12 09:03:40;;;;;;;8.53;7.72;;;;;;;30.02;51.51;100496.89;1742115;81;21067;-73
2021/07/12 09:06:12;;;;;;;7.95;7.25;;;;;;;30.06;50.93;100503.19;1754016;80;21149;-74
2021/07/12 09:08:47;;;;;;;8.60;7.35;;;;;;;30.06;50.80;100507.31;1748832;80;21070;-76
2021/07/12 09:11:31;;;;;;;8.53;7.72;;;;;;;30.06;50.84;100510.07;1741796;80;21003;-73
2021/07/12 09:14:07;;;;;;;8.43;7.70;;;;;;;30.18;51.27;100512.27;1703772;83;21039;-73
2021/07/12 09:16:54;;;;;;;8.60;7.80;;;;;;;30.28;50.77;100516.44;1732910;80;21663;-73
2021/07/12 09:19:29;;;;;;;8.25;7.45;;;;;;;30.32;49.08;100516.44;1729496;81;21832;-73
2021/07/12 09:22:10;;;;;;;8.18;7.47;;;;;;;30.33;49.65;100527.05;1742377;80;21581;-73
2021/07/12 09:24:55;;;;;;;8.90;8.00;;;;;;;30.34;50.39;100540.27;1746851;80;21055;-74
2021/07/12 09:27:27;;;;;;;8.43;7.65;;;;;;;30.41;50.88;100549.13;1749439;80;20975;-73
2021/07/12 09:30:00;;;;;;;8.70;7.90;;;;;;;30.34;50.11;100548.53;1748759;81;21008;-72
2021/07/12 09:32:31;;;;;;;8.95;8.15;;;;;;;30.20;49.88;100557.54;1733917;80;21166;-72
2021/07/12 09:35:06;;;;;;;8.28;7.42;;;;;;;30.03;50.19;100555.52;1745770;80;21129;-73
2021/07/12 09:37:35;;;;;;;8.85;8.05;;;;;;;29.85;50.57;100552.13;1748381;80;21047;-73
2021/07/12 09:40:12;;;;;;;9.15;8.25;;;;;;;29.66;51.30;100544.97;1748351;80;21652;-73
2021/07/12 09:42:41;;;;;;;8.48;7.58;;;;;;;29.54;52.16;100537.02;1741655;80;21177;-74
2021/07/12 09:45:10;;;;;;;8.35;7.20;;;;;;;29.55;53.27;100540.00;1742903;82;21116;-74
2021/07/12 09:47:41;;;;;;;9.48;8.45;;;;;;;29.59;51.60;100538.63;1751222;80;21015;-74
2021/07/12 09:50:15;;;;;;;9.30;8.38;;;;;;;29.63;51.64;100540.24;1747397;80;21085;-74
2021/07/12 09:52:53;;;;;;;10.43;9.48;;;;;;;29.61;51.71;100538.45;1740264;80;21029;-73
2021/07/12 09:55:30;;;;;;;9.70;8.70;;;;;;;29.59;50.98;100544.14;1749275;82;21116;-74
2021/07/12 09:58:13;;;;;;;11.95;9.08;;;;;;;29.58;52.14;100557.67;1749110;80;21527;-74
2021/07/12 10:00:43;;;;;;;9.73;8.83;;;;;;;29.51;52.88;100556.27;1748573;81;20979;-72
2021/07/12 10:03:10;;;;;;;10.20;9.05;;;;;;;29.36;52.89;100556.21;1740431;80;21022;-72
2021/07/12 10:05:37;;;;;;;10.43;8.88;;;;;;;29.29;54.00;100559.52;1728369;82;20998;-74
2021/07/12 10:08:06;;;;;;;10.50;9.55;;;;;;;29.20;54.25;100562.01;1747747;80;21035;-73
2021/07/12 10:10:33;;;;;;;10.28;9.28;;;;;;;29.07;52.90;100559.97;1749366;80;21160;-73
2021/07/12 10:12:59;;;;;;;10.55;9.43;;;;;;;28.95;53.36;100561.02;1740118;80;21673;-73
2021/07/12 10:15:26;;;;;;;9.03;8.15;;;;;;;28.88;54.38;100566.47;1740972;80;21435;-73
2021/07/12 10:17:57;;;;;;;9.50;7.95;;;;;;;28.85;54.41;100556.23;1745135;80;21093;-73
2021/07/12 10:20:22;;;;;;;10.65;9.50;;;;;;;28.87;55.06;100551.94;1692715;80;21530;-74
2021/07/12 10:22:49;;;;;;;12.47;10.32;;;;;;;28.85;54.42;100553.48;1741908;80;21101;-73
2021/07/12 10:25:18;;;;;;;10.28;9.28;;;;;;;28.84;54.97;100560.95;1747469;80;21110;-72
2021/07/12 10:27:54;;;;;;;12.45;9.03;;;;;;;28.80;55.77;100557.98;1747045;82;21020;-72
2021/07/12 10:30:36;;;;;;;9.98;9.08;;;;;;;28.70;56.74;100561.63;1747929;80;21554;-73
2021/07/12 10:33:08;;;;;;;9.83;8.93;;;;;;;28.61;56.30;100553.50;1740759;81;21097;-72
2021/07/12 10:35:48;;;;;;;10.07;9.17;;;;;;;28.57;55.94;100545.81;1742986;80;21754;-73
2021/07/12 10:38:25;;;;;;;12.83;9.20;;;;;;;28.57;55.86;100539.73;1763262;80;20955;-73
2021/07/12 10:40:57;;;;;;;10.60;9.50;;;;;;;28.47;55.83;100534.34;1766316;79;21552;-73
2021/07/12 10:43:55;;;;;;;10.13;9.13;;;;;;;28.29;55.69;100527.27;1740801;81;21547;-74
2021/07/12 10:46:30;;;;;;;10.53;9.53;;;;;;;28.11;56.14;100526.91;1747572;82;21067;-73
2021/07/12 10:49:01;;;;;;;10.23;8.73;;;;;;;27.92;56.96;100519.65;1744308;80;21188;-73
2021/07/12 10:51:32;;;;;;;9.67;8.77;;;;;;;27.83;57.34;100511.11;1746918;80;21102;-73
2021/07/12 10:54:07;;;;;;;8.93;8.13;;;;;;;27.80;57.09;100501.47;1741524;80;21190;-74
2021/07/12 10:56:53;;;;;;;9.57;8.63;;;;;;;27.77;57.03;100496.17;1735849;82;21042;-74
2021/07/12 10:59:34;;;;;;;9.57;8.77;;;;;;;27.79;57.26;100485.59;1766490;80;21037;-73
2021/07/12 11:02:20;;;;;;;9.83;8.83;;;;;;;27.79;56.80;100475.98;1726994;81;21147;-72
2021/07/12 11:05:04;;;;;;;9.23;7.80;;;;;;;27.78;56.65;100474.41;1727206;80;20924;-73
2021/07/12 11:07:45;;;;;;;8.93;8.03;;;;;;;27.81;56.58;100477.78;1729990;81;21042;-73
2021/07/12 11:10:28;;;;;;;9.80;8.80;;;;;;;27.83;56.01;100481.52;1731883;81;21019;-73
2021/07/12 11:13:02;;;;;;;9.17;8.27;;;;;;;27.81;56.25;100482.48;1731893;81;21050;-74
2021/07/12 11:15:37;;;;;;;9.43;8.10;;;;;;;27.79;57.10;100491.67;1702789;82;21102;-74
2021/07/12 11:18:10;;;;;;;9.73;8.83;;;;;;;27.79;57.59;100489.70;1699163;82;20960;-74
2021/07/12 11:20:47;;;;;;;9.67;8.67;;;;;;;27.82;57.62;100486.22;1727116;83;21101;-74
2021/07/12 11:23:48;;;;;;;11.83;8.70;;;;;;;27.86;58.34;100474.48;1727382;81;21528;-74
2021/07/12 11:26:27;;;;;;;10.33;9.17;;;;;;;27.93;57.71;100475.92;1701865;83;21098;-73
2021/07/12 11:28:59;;;;;;;9.53;8.25;;;;;;;28.10;56.98;100483.56;1698785;82;21667;-72
2021/07/12 11:31:48;;;;;;;12.17;8.63;;;;;;;28.33;56.08;100485.31;1674631;84;21495;-73
2021/07/12 11:34:32;;;;;;;9.93;8.93;;;;;;;28.55;55.16;100476.70;1733756;81;21027;-72